TAF and METAR

METAR for Zahedan Airport

OIZH 192000Z 14006KT CAVOK 15/M01 Q1022 A3021
Report created 19. okt 22:00
wind 6 knots from SE (140°) Clear sky Temperature 15° with dewpoint at -1° (Humidity 33.35%) Pressure 1022 hPa

TAF for Zahedan Airport

TAF OIZH 191730Z 1918/2024 20008KT 8000 NSC TEMPO 2008/2014 FEW035CB SCT040 OVC100
Report created 19. okt 19:30

between 19. okt 20:00 - 20. okt 02:00

wind 8 knots from SSW (200°) visibility 8000 meters No significant clouds.

temporarily between 20. okt 10:00 - 20. okt 16:00

some clouds (~25% cover) at 3500 feet of type cumulonimbus scattered clouds (~50% cover) at 4000 feet overcast at 10000 feet